59TN weather

Burnett Heliport
Atoka, Tennessee, United States

Public forecast

Using degrees Fahrenheit for public forecast. Weather courtesy of forecast.io.

METAR (pilot weather report)

Closest report is Millington-Memphis Airport, 9.8 nm (18.2 km) WSW. Retrieved 2019/05/21 15:50 UTC (51 minutes ago):

KNQA 211550Z 19010G16KT 10SM SCT033 BKN046 29/21 A2984

TAF (pilot weather forecast)

Closest forecast is Memphis International Airport, 25.9 nm (47.9 km) SW. Retrieved 2019/05/21 12:22 UTC (4 hours ago):

TAF KMEM 211120Z 2112/2218 17015G20KT P6SM SCT045 BKN200 FM211800 18019G26KT P6SM FEW045 FM220300 17020G27KT P6SM VCTS SCT035CB FM220600 18015G20KT 6SM -SHRA BKN025 FM221500 19012KT P6SM BKN025